createdAt,value
2023-05-22T00:02:17.033Z,16.84
2023-05-22T00:04:43.653Z,16.87
2023-05-22T00:07:10.250Z,16.92
2023-05-22T00:09:36.768Z,16.98
2023-05-22T00:12:03.468Z,17.02
2023-05-22T00:14:29.971Z,17.06
2023-05-22T00:17:00.280Z,17.11
2023-05-22T00:19:26.878Z,17.11
2023-05-22T00:21:54.292Z,17.12
2023-05-22T00:24:20.873Z,17.11
2023-05-22T00:26:47.502Z,17.09
2023-05-22T00:29:14.131Z,17.07
2023-05-22T00:31:40.685Z,17.05
2023-05-22T00:34:07.338Z,17.02
2023-05-22T00:36:33.917Z,16.95
2023-05-22T00:39:00.471Z,16.95
2023-05-22T00:41:27.227Z,16.94
2023-05-22T00:43:53.734Z,16.93
2023-05-22T00:46:24.532Z,16.91
2023-05-22T00:48:52.556Z,16.89
2023-05-22T00:51:21.907Z,16.86
2023-05-22T00:53:50.274Z,16.88
2023-05-22T00:56:17.456Z,16.87
2023-05-22T00:58:44.293Z,16.85
2023-05-22T01:01:11.600Z,16.80
2023-05-22T01:03:44.838Z,16.78
2023-05-22T01:06:15.978Z,16.78
2023-05-22T01:08:42.871Z,16.76
2023-05-22T01:11:22.181Z,16.74
2023-05-22T01:14:10.889Z,16.75
2023-05-22T01:16:46.748Z,16.73
2023-05-22T01:19:32.013Z,16.71
2023-05-22T01:22:31.967Z,16.67
2023-05-22T01:25:52.955Z,16.65
2023-05-22T01:28:41.364Z,16.58
2023-05-22T01:31:17.961Z,16.53
2023-05-22T01:34:00.546Z,16.47
2023-05-22T01:36:35.019Z,16.50
2023-05-22T01:39:04.575Z,16.52
2023-05-22T01:41:32.353Z,16.50
2023-05-22T01:44:00.293Z,16.50
2023-05-22T01:46:28.938Z,16.49
2023-05-22T01:48:55.618Z,16.45
2023-05-22T01:51:48.880Z,16.46
2023-05-22T01:54:46.349Z,16.43
2023-05-22T01:57:28.853Z,16.43
2023-05-22T01:59:55.443Z,16.43
2023-05-22T02:02:24.192Z,16.44
2023-05-22T02:04:58.835Z,16.42
2023-05-22T02:07:25.911Z,16.41
2023-05-22T02:09:55.641Z,16.39
2023-05-22T02:12:23.336Z,16.38
2023-05-22T02:14:51.283Z,16.36
2023-05-22T02:17:18.206Z,16.34
2023-05-22T02:19:45.247Z,16.30
2023-05-22T02:22:14.757Z,16.31
2023-05-22T02:24:47.312Z,16.31
2023-05-22T02:27:14.341Z,16.31
2023-05-22T02:29:40.935Z,16.30
2023-05-22T02:32:07.835Z,16.29
2023-05-22T02:34:35.008Z,16.27
2023-05-22T02:37:04.700Z,16.25
2023-05-22T02:39:31.308Z,16.19
2023-05-22T02:41:57.795Z,16.17
2023-05-22T02:44:24.299Z,16.22
2023-05-22T02:46:50.822Z,16.14
2023-05-22T02:49:17.361Z,16.15
2023-05-22T02:51:47.523Z,16.14
2023-05-22T02:54:15.803Z,16.15
2023-05-22T02:56:43.379Z,16.14
2023-05-22T02:59:10.150Z,16.13
2023-05-22T03:01:38.727Z,16.10
2023-05-22T03:04:06.508Z,16.07
2023-05-22T03:06:34.213Z,16.05
2023-05-22T03:09:01.190Z,15.99
2023-05-22T03:11:27.668Z,16.03
2023-05-22T03:13:54.129Z,16.03
2023-05-22T03:16:20.677Z,15.99
2023-05-22T03:18:47.303Z,15.97
2023-05-22T03:21:13.815Z,15.94
2023-05-22T03:23:40.313Z,15.90
2023-05-22T03:26:06.887Z,15.89
2023-05-22T03:28:33.369Z,15.86
2023-05-22T03:30:59.837Z,15.83
2023-05-22T03:33:26.358Z,15.78
2023-05-22T03:35:53.258Z,15.77
2023-05-22T03:38:19.780Z,15.76
2023-05-22T03:40:46.290Z,15.73
2023-05-22T03:43:12.841Z,15.69
2023-05-22T03:45:39.421Z,15.67
2023-05-22T03:48:06.133Z,15.65
2023-05-22T03:50:32.622Z,15.68
2023-05-22T03:52:59.245Z,15.63
2023-05-22T03:55:26.609Z,15.64
2023-05-22T03:57:53.187Z,15.62
2023-05-22T04:00:19.986Z,15.60
2023-05-22T04:02:46.883Z,15.46
2023-05-22T04:05:13.657Z,15.54
2023-05-22T04:07:40.170Z,15.52
2023-05-22T04:10:07.160Z,15.48
2023-05-22T04:12:33.913Z,15.47
2023-05-22T04:15:00.457Z,15.51
2023-05-22T04:17:32.519Z,15.55
2023-05-22T04:20:00.356Z,15.57
2023-05-22T04:22:27.604Z,15.61
2023-05-22T04:24:54.078Z,15.63
2023-05-22T04:27:22.482Z,15.61
2023-05-22T04:29:50.374Z,15.64
2023-05-22T04:32:21.816Z,15.64
2023-05-22T04:34:52.248Z,15.65
2023-05-22T04:37:20.152Z,15.68
2023-05-22T04:39:47.263Z,15.69
2023-05-22T04:42:14.540Z,15.69
2023-05-22T04:44:41.924Z,15.73
2023-05-22T04:47:14.365Z,15.73
2023-05-22T04:49:42.466Z,15.68
2023-05-22T04:52:11.522Z,15.66
2023-05-22T04:54:38.943Z,15.68
2023-05-22T04:57:05.801Z,15.69
2023-05-22T04:59:33.435Z,15.67
2023-05-22T05:01:59.962Z,15.69
2023-05-22T05:04:26.474Z,15.74
2023-05-22T05:06:53.535Z,15.74
2023-05-22T05:09:20.105Z,15.73
2023-05-22T05:11:46.593Z,15.72
2023-05-22T05:14:13.078Z,15.77
2023-05-22T05:16:39.646Z,15.78
2023-05-22T05:19:06.218Z,15.67
2023-05-22T05:21:32.744Z,15.69
2023-05-22T05:23:59.268Z,15.72
2023-05-22T05:26:27.247Z,15.62
2023-05-22T05:28:54.122Z,15.59
2023-05-22T05:31:20.827Z,15.59
2023-05-22T05:33:47.369Z,15.56
2023-05-22T05:36:13.911Z,15.57
2023-05-22T05:38:40.701Z,15.59
2023-05-22T05:41:07.407Z,15.63
2023-05-22T05:43:34.026Z,15.68
2023-05-22T05:46:00.803Z,15.79
2023-05-22T05:48:27.336Z,15.89
2023-05-22T05:50:53.843Z,15.97
2023-05-22T05:53:20.385Z,16.02
2023-05-22T05:55:46.920Z,16.07
2023-05-22T05:58:13.515Z,16.02
2023-05-22T06:00:42.357Z,16.07
2023-05-22T06:03:09.024Z,16.12
2023-05-22T06:05:35.816Z,16.24
2023-05-22T06:08:02.410Z,16.23
2023-05-22T06:10:28.961Z,16.21
2023-05-22T06:12:55.638Z,16.29
2023-05-22T06:15:22.110Z,16.26
2023-05-22T06:17:48.604Z,16.30
2023-05-22T06:20:15.647Z,16.37
2023-05-22T06:22:42.309Z,16.49
2023-05-22T06:25:09.833Z,16.52
2023-05-22T06:27:36.715Z,16.54
2023-05-22T06:30:04.896Z,16.64
2023-05-22T06:32:31.709Z,16.62
2023-05-22T06:34:58.450Z,16.66
2023-05-22T06:37:25.015Z,16.67
2023-05-22T06:39:51.543Z,16.69
2023-05-22T06:42:18.051Z,16.70
2023-05-22T06:44:44.636Z,16.71
2023-05-22T06:47:11.527Z,16.75
2023-05-22T06:49:38.148Z,16.88
2023-05-22T06:52:05.495Z,17.03
2023-05-22T06:54:32.085Z,17.25
2023-05-22T06:56:59.514Z,17.36
2023-05-22T06:59:26.110Z,17.53
2023-05-22T07:01:52.747Z,17.68
2023-05-22T07:04:19.374Z,17.80
2023-05-22T07:06:46.308Z,17.77
2023-05-22T07:09:13.899Z,17.79
2023-05-22T07:11:42.828Z,17.94
2023-05-22T07:14:09.882Z,17.88
2023-05-22T07:16:37.252Z,17.99
2023-05-22T07:19:03.983Z,17.97
2023-05-22T07:21:35.460Z,18.09
2023-05-22T07:24:08.514Z,18.34
2023-05-22T07:26:38.408Z,18.55
2023-05-22T07:29:05.053Z,18.65
2023-05-22T07:31:33.684Z,18.83
2023-05-22T07:34:00.562Z,18.82
2023-05-22T07:36:27.080Z,18.97
2023-05-22T07:38:53.589Z,19.12
2023-05-22T07:41:20.102Z,19.14
2023-05-22T07:43:46.627Z,19.05
2023-05-22T07:46:13.222Z,19.29
2023-05-22T07:48:39.771Z,19.35
2023-05-22T07:51:06.480Z,19.42
2023-05-22T07:53:32.989Z,19.61
2023-05-22T07:55:59.477Z,19.59
2023-05-22T07:58:25.991Z,19.77
2023-05-22T08:00:52.800Z,19.85
2023-05-22T08:03:20.486Z,19.93
2023-05-22T08:05:49.085Z,19.94
2023-05-22T08:08:15.793Z,20.09
2023-05-22T08:10:58.273Z,20.26
2023-05-22T08:13:28.978Z,20.27
2023-05-22T08:16:00.111Z,20.39
2023-05-22T08:18:28.952Z,20.43
2023-05-22T08:20:56.003Z,20.55
2023-05-22T08:23:22.530Z,20.54
2023-05-22T08:25:50.220Z,20.70
2023-05-22T08:28:16.831Z,20.88
2023-05-22T08:30:43.436Z,21.01
2023-05-22T08:33:10.023Z,21.14
2023-05-22T08:35:36.663Z,21.23
2023-05-22T08:38:03.168Z,21.29
2023-05-22T08:40:39.361Z,21.34
2023-05-22T08:43:06.610Z,21.46
2023-05-22T08:45:36.893Z,21.49
2023-05-22T08:48:07.190Z,21.42
2023-05-22T08:50:40.944Z,21.49
2023-05-22T08:53:08.378Z,21.66
2023-05-22T08:55:34.963Z,21.86
2023-05-22T08:58:02.249Z,21.92
2023-05-22T09:00:29.696Z,21.99
2023-05-22T09:02:57.524Z,22.03
2023-05-22T09:05:26.821Z,22.21
2023-05-22T09:07:56.571Z,22.36
2023-05-22T09:10:25.647Z,22.51
2023-05-22T09:13:09.394Z,22.56
2023-05-22T09:15:36.958Z,22.74
2023-05-22T09:18:05.205Z,22.67
2023-05-22T09:20:35.990Z,22.73
2023-05-22T09:23:11.553Z,22.75
2023-05-22T09:25:38.170Z,22.95
2023-05-22T09:28:04.742Z,23.14
2023-05-22T09:30:34.697Z,23.06
2023-05-22T09:33:01.545Z,23.11
2023-05-22T09:35:28.179Z,22.88
2023-05-22T09:37:56.155Z,23.26
2023-05-22T09:40:23.271Z,23.45
2023-05-22T09:42:49.870Z,23.50
2023-05-22T09:45:21.480Z,23.63
2023-05-22T09:47:53.646Z,23.74
2023-05-22T09:50:20.604Z,23.39
2023-05-22T09:52:50.764Z,23.58
2023-05-22T09:55:22.904Z,23.75
2023-05-22T09:57:52.205Z,23.63
2023-05-22T10:00:20.061Z,23.62
2023-05-22T10:02:53.645Z,23.42
2023-05-22T10:05:22.115Z,23.38
2023-05-22T10:07:56.138Z,23.52
2023-05-22T10:10:25.767Z,23.56
2023-05-22T10:13:03.515Z,23.60
2023-05-22T10:15:30.956Z,23.82
2023-05-22T10:17:58.669Z,24.03
2023-05-22T10:20:29.541Z,23.89
2023-05-22T10:22:56.863Z,23.84
2023-05-22T10:25:23.734Z,23.63
2023-05-22T10:27:53.623Z,23.72
2023-05-22T10:30:34.776Z,23.97
2023-05-22T10:33:21.721Z,24.23
2023-05-22T10:36:26.735Z,24.32
2023-05-22T10:39:12.204Z,24.34
2023-05-22T10:41:40.020Z,24.50
2023-05-22T10:44:06.762Z,24.58
2023-05-22T10:46:36.447Z,24.85
2023-05-22T10:49:03.231Z,25.05
2023-05-22T10:51:32.403Z,25.33
2023-05-22T10:54:02.261Z,25.12
2023-05-22T10:56:36.238Z,25.12
2023-05-22T10:59:05.362Z,25.36
2023-05-22T11:01:37.885Z,25.67
2023-05-22T11:04:05.189Z,25.98
2023-05-22T11:06:45.779Z,26.08
2023-05-22T11:09:24.497Z,26.08
2023-05-22T11:12:12.976Z,25.96
2023-05-22T11:14:39.634Z,26.27
2023-05-22T11:17:06.609Z,26.47
2023-05-22T11:19:33.531Z,26.62
2023-05-22T11:22:01.833Z,26.58
2023-05-22T11:24:32.786Z,26.70
2023-05-22T11:27:05.869Z,26.38
2023-05-22T11:29:32.852Z,26.82
2023-05-22T11:32:00.251Z,26.89
2023-05-22T11:34:27.296Z,26.54
2023-05-22T11:37:00.677Z,26.56
2023-05-22T11:39:27.565Z,26.98
2023-05-22T11:41:54.408Z,27.28
2023-05-22T11:44:21.304Z,27.41
2023-05-22T11:46:48.140Z,27.29
2023-05-22T11:49:14.785Z,26.86
2023-05-22T11:51:41.545Z,26.85
2023-05-22T11:54:08.170Z,26.85
2023-05-22T11:56:34.689Z,26.49
2023-05-22T11:59:01.510Z,26.48
2023-05-22T12:01:28.071Z,26.97
2023-05-22T12:03:55.033Z,27.24
2023-05-22T12:06:21.882Z,27.52
2023-05-22T12:08:48.484Z,27.62
2023-05-22T12:11:15.322Z,27.25
2023-05-22T12:13:41.897Z,27.11
2023-05-22T12:16:19.635Z,27.69
2023-05-22T12:18:46.296Z,28.22
2023-05-22T12:21:13.040Z,28.62
2023-05-22T12:23:49.449Z,28.72
2023-05-22T12:26:16.090Z,28.45
2023-05-22T12:28:43.220Z,28.23
2023-05-22T12:31:09.796Z,28.37
2023-05-22T12:33:36.336Z,28.74
2023-05-22T12:36:07.907Z,28.76
2023-05-22T12:38:35.665Z,28.40
2023-05-22T12:41:02.267Z,28.45
2023-05-22T12:43:29.052Z,28.69
2023-05-22T12:45:55.728Z,28.82
2023-05-22T12:48:23.023Z,28.47
2023-05-22T12:50:49.856Z,29.05
2023-05-22T12:53:16.495Z,28.91
2023-05-22T12:55:43.470Z,28.89
2023-05-22T12:58:10.044Z,28.40
2023-05-22T13:00:36.654Z,28.81
2023-05-22T13:03:04.811Z,28.61
2023-05-22T13:05:31.449Z,28.30
2023-05-22T13:07:58.084Z,28.37
2023-05-22T13:10:24.829Z,28.42
2023-05-22T13:12:51.639Z,28.90
2023-05-22T13:15:18.720Z,28.50
2023-05-22T13:17:45.857Z,28.53
2023-05-22T13:20:13.043Z,29.12
2023-05-22T13:22:40.309Z,29.94
2023-05-22T13:25:07.130Z,30.57
2023-05-22T13:27:34.176Z,30.86
2023-05-22T13:30:00.805Z,30.33
2023-05-22T13:32:27.417Z,30.06
2023-05-22T13:34:54.112Z,29.55
2023-05-22T13:37:20.950Z,29.42
2023-05-22T13:39:47.624Z,29.59
2023-05-22T13:42:14.500Z,28.82
2023-05-22T13:44:42.024Z,28.37
2023-05-22T13:47:08.762Z,28.31
2023-05-22T13:49:35.403Z,28.24
2023-05-22T13:52:02.075Z,28.81
2023-05-22T13:54:28.803Z,28.69
2023-05-22T13:56:57.678Z,28.58
2023-05-22T13:59:24.320Z,28.54
2023-05-22T14:01:50.933Z,28.34
2023-05-22T14:04:17.503Z,28.14
2023-05-22T14:06:44.164Z,27.74
2023-05-22T14:09:10.871Z,27.34
2023-05-22T14:11:37.482Z,27.09
2023-05-22T14:14:04.064Z,26.90
2023-05-22T14:16:30.720Z,26.79
2023-05-22T14:18:57.330Z,26.65
2023-05-22T14:21:23.850Z,26.53
2023-05-22T14:23:50.500Z,26.80
2023-05-22T14:26:18.085Z,26.85
2023-05-22T14:28:44.927Z,26.72
2023-05-22T14:31:11.493Z,26.74
2023-05-22T14:33:50.075Z,26.70
2023-05-22T14:36:26.153Z,26.45
2023-05-22T14:38:55.926Z,26.80
2023-05-22T14:41:22.436Z,27.05
2023-05-22T14:43:48.965Z,27.18
2023-05-22T14:46:15.683Z,27.87
2023-05-22T14:48:42.277Z,28.42
2023-05-22T15:15:21.137Z,26.26
2023-05-22T15:17:47.709Z,26.60
2023-05-22T15:20:14.308Z,26.90
2023-05-22T15:22:40.950Z,27.11
2023-05-22T15:25:09.687Z,27.25
2023-05-22T15:27:38.994Z,27.34
2023-05-22T15:30:06.792Z,27.00
2023-05-22T15:32:33.425Z,27.21
2023-05-22T15:35:00.107Z,27.44
2023-05-22T15:37:27.923Z,27.30
2023-05-22T15:39:55.537Z,27.32
2023-05-22T15:42:22.165Z,26.67
2023-05-22T15:44:48.684Z,26.58
2023-05-22T15:47:15.249Z,26.77
2023-05-22T15:49:41.759Z,26.09
2023-05-22T15:52:08.318Z,26.03
2023-05-22T15:54:34.884Z,25.80
2023-05-22T15:57:01.401Z,25.72
2023-05-22T15:59:27.956Z,25.48
2023-05-22T16:01:54.478Z,25.57
2023-05-22T16:04:24.246Z,25.11
2023-05-22T16:06:50.820Z,25.06
2023-05-22T16:09:21.950Z,25.06
2023-05-22T16:11:49.010Z,25.05
2023-05-22T16:14:15.672Z,25.15
2023-05-22T16:16:42.179Z,25.05
2023-05-22T16:19:08.780Z,24.94
2023-05-22T16:21:40.207Z,24.81
2023-05-22T16:24:07.051Z,24.88
2023-05-22T16:26:33.723Z,24.66
2023-05-22T16:29:00.297Z,24.63
2023-05-22T16:31:26.826Z,24.38
2023-05-22T16:33:53.372Z,23.86
2023-05-22T16:36:19.949Z,23.25
2023-05-22T16:38:46.833Z,22.30
2023-05-22T16:41:13.398Z,21.33
2023-05-22T16:43:39.904Z,20.78
2023-05-22T16:46:06.530Z,20.29
2023-05-22T16:48:33.074Z,20.01
2023-05-22T16:50:59.620Z,19.77
2023-05-22T16:53:26.156Z,19.65
2023-05-22T16:55:52.768Z,19.53
2023-05-22T16:58:19.551Z,19.49
2023-05-22T17:00:46.244Z,19.38
2023-05-22T17:03:14.095Z,19.34
2023-05-22T17:05:41.472Z,19.11
2023-05-22T17:08:08.577Z,18.93
2023-05-22T17:10:35.429Z,18.86
2023-05-22T17:13:02.063Z,18.82
2023-05-22T17:15:28.682Z,18.74
2023-05-22T17:17:55.498Z,18.80
2023-05-22T17:20:25.810Z,18.81
2023-05-22T17:22:52.504Z,18.80
2023-05-22T17:25:19.173Z,18.77
2023-05-22T17:27:46.448Z,18.88
2023-05-22T17:30:13.040Z,19.00
2023-05-22T17:32:39.709Z,19.06
2023-05-22T17:35:06.912Z,18.99
2023-05-22T17:37:33.988Z,18.95
2023-05-22T17:40:00.529Z,18.96
2023-05-22T17:42:27.091Z,18.97
2023-05-22T17:44:53.589Z,18.95
2023-05-22T17:47:20.165Z,18.99
2023-05-22T17:49:46.704Z,18.95
2023-05-22T17:52:13.438Z,18.91
2023-05-22T17:54:39.984Z,18.78
2023-05-22T17:57:06.545Z,18.62
2023-05-22T17:59:33.333Z,18.49
2023-05-22T18:02:00.012Z,18.44
2023-05-22T18:04:26.642Z,18.54
2023-05-22T18:06:53.149Z,18.44
2023-05-22T18:09:19.659Z,18.47
2023-05-22T18:11:46.246Z,18.41
2023-05-22T18:14:13.018Z,18.38
2023-05-22T18:16:39.534Z,18.38
2023-05-22T18:19:06.201Z,18.36
2023-05-22T18:21:32.816Z,18.30
2023-05-22T18:23:59.353Z,18.33
2023-05-22T18:26:26.870Z,18.37
2023-05-22T18:28:53.387Z,18.44
2023-05-22T18:31:20.231Z,18.46
2023-05-22T18:33:47.128Z,18.49
2023-05-22T18:36:13.758Z,18.53
2023-05-22T18:38:41.175Z,18.57
2023-05-22T18:41:07.825Z,18.57
2023-05-22T18:43:34.412Z,18.58
2023-05-22T18:46:00.988Z,18.62
2023-05-22T18:48:28.223Z,18.60
2023-05-22T18:50:57.360Z,18.58
2023-05-22T18:53:25.304Z,18.61
2023-05-22T18:55:52.528Z,18.66
2023-05-22T18:58:19.444Z,18.64
2023-05-22T19:00:46.245Z,18.66
2023-05-22T19:03:14.085Z,18.67
2023-05-22T19:05:41.087Z,18.69
2023-05-22T19:08:07.657Z,18.72
2023-05-22T19:10:34.309Z,18.72
2023-05-22T19:13:00.805Z,18.69
2023-05-22T19:15:27.343Z,18.60
2023-05-22T19:17:53.911Z,18.53
2023-05-22T19:20:20.460Z,18.56
2023-05-22T19:22:47.083Z,18.52
2023-05-22T19:25:13.719Z,18.47
2023-05-22T19:27:40.358Z,18.41
2023-05-22T19:30:07.425Z,18.37
2023-05-22T19:32:34.086Z,18.34
2023-05-22T19:35:00.731Z,18.33
2023-05-22T19:37:27.257Z,18.31
2023-05-22T19:39:54.245Z,18.28
2023-05-22T19:42:20.818Z,18.29
2023-05-22T19:44:47.421Z,18.23
2023-05-22T19:47:13.986Z,18.24
2023-05-22T19:49:40.546Z,18.23
2023-05-22T19:52:07.222Z,18.17
2023-05-22T19:54:35.169Z,18.11
2023-05-22T19:57:03.244Z,18.15
2023-05-22T19:59:29.758Z,18.08
2023-05-22T20:01:56.392Z,17.93
2023-05-22T20:04:23.169Z,17.87
2023-05-22T20:06:49.781Z,17.78
2023-05-22T20:09:16.332Z,17.74
2023-05-22T20:11:42.794Z,17.69
2023-05-22T20:14:09.431Z,17.64
2023-05-22T20:16:36.223Z,17.59
2023-05-22T20:19:04.092Z,17.42
2023-05-22T20:21:31.051Z,17.36
2023-05-22T20:23:57.700Z,17.27
2023-05-22T20:26:24.308Z,17.19
2023-05-22T20:28:50.931Z,17.11
2023-05-22T20:31:17.579Z,17.08
2023-05-22T20:33:44.235Z,17.06
2023-05-22T20:36:10.757Z,17.01
2023-05-22T20:38:37.331Z,16.98
2023-05-22T20:41:07.695Z,16.94
2023-05-22T20:43:35.883Z,16.81
2023-05-22T20:46:02.642Z,16.71
2023-05-22T20:48:34.694Z,16.63
2023-05-22T20:51:01.244Z,16.57
2023-05-22T20:53:27.818Z,16.52
2023-05-22T20:55:54.321Z,16.47
2023-05-22T20:58:22.925Z,16.44
2023-05-22T21:00:50.130Z,16.43
2023-05-22T21:03:17.721Z,16.29
2023-05-22T21:05:44.287Z,16.22
2023-05-22T21:08:10.784Z,16.19
2023-05-22T21:10:41.569Z,16.19
2023-05-22T21:13:08.490Z,16.13
2023-05-22T21:15:35.001Z,16.12
2023-05-22T21:18:01.522Z,16.06
2023-05-22T21:20:28.165Z,16.03
2023-05-22T21:22:54.680Z,15.96
2023-05-22T21:25:21.448Z,15.91
2023-05-22T21:27:49.249Z,15.86
2023-05-22T21:30:16.142Z,15.84
2023-05-22T21:32:43.141Z,15.80
2023-05-22T21:35:09.954Z,15.76
2023-05-22T21:37:36.481Z,15.73
2023-05-22T21:40:03.291Z,15.66
2023-05-22T21:42:41.943Z,15.60
2023-05-22T21:45:12.725Z,15.56
2023-05-22T21:47:39.303Z,15.51
2023-05-22T21:50:06.304Z,15.45
2023-05-22T21:52:32.858Z,15.42
2023-05-22T21:55:02.159Z,15.37
2023-05-22T21:57:28.752Z,15.35
2023-05-22T21:59:55.373Z,15.34
2023-05-22T22:02:21.999Z,15.29
2023-05-22T22:04:48.520Z,15.24
2023-05-22T22:07:15.119Z,15.24
2023-05-22T22:09:41.667Z,15.25
2023-05-22T22:12:08.192Z,15.23
2023-05-22T22:14:34.738Z,15.17
2023-05-22T22:17:01.273Z,15.19
2023-05-22T22:19:28.906Z,15.11
2023-05-22T22:21:55.671Z,15.15
2023-05-22T22:24:22.231Z,15.14
2023-05-22T22:26:49.260Z,15.13
2023-05-22T22:29:16.436Z,15.06
2023-05-22T22:31:43.026Z,14.99
2023-05-22T22:34:09.684Z,14.99
2023-05-22T22:36:36.189Z,14.91
2023-05-22T22:39:02.708Z,14.90
2023-05-22T22:41:29.258Z,14.84
2023-05-22T22:43:56.054Z,14.83
2023-05-22T22:46:22.648Z,14.73
2023-05-22T22:48:49.296Z,14.72
2023-05-22T22:51:15.784Z,14.67
2023-05-22T22:53:42.293Z,14.65
2023-05-22T22:56:08.967Z,14.58
2023-05-22T22:58:36.536Z,14.56
2023-05-22T23:01:05.127Z,14.49
2023-05-22T23:03:31.794Z,14.43
2023-05-22T23:05:58.296Z,14.48
2023-05-22T23:08:24.776Z,14.47
2023-05-22T23:10:51.276Z,14.45
2023-05-22T23:13:17.783Z,14.42
2023-05-22T23:15:44.505Z,14.32
2023-05-22T23:18:11.885Z,14.25
2023-05-22T23:20:38.477Z,14.22
2023-05-22T23:23:05.050Z,14.23
2023-05-22T23:25:31.616Z,14.25
2023-05-22T23:27:58.163Z,14.12
2023-05-22T23:30:24.710Z,14.20
2023-05-22T23:32:51.223Z,14.18
2023-05-22T23:35:17.773Z,14.17
2023-05-22T23:37:44.314Z,14.18
2023-05-22T23:40:11.406Z,14.12
2023-05-22T23:42:37.963Z,14.11
2023-05-22T23:45:04.792Z,14.08
2023-05-22T23:47:31.637Z,14.02
2023-05-22T23:49:59.616Z,14.03
2023-05-22T23:52:26.898Z,14.09
2023-05-22T23:54:53.511Z,14.06
2023-05-22T23:57:20.071Z,14.04
2023-05-22T23:59:46.581Z,14.01
